createdAt,value
2023-05-01T00:00:54.800Z,6.40
2023-05-01T00:03:21.806Z,6.41
2023-05-01T00:05:49.515Z,6.40
2023-05-01T00:08:17.226Z,6.44
2023-05-01T00:10:44.621Z,6.47
2023-05-01T00:13:11.883Z,6.43
2023-05-01T00:15:42.526Z,6.39
2023-05-01T00:18:09.783Z,6.34
2023-05-01T00:20:37.021Z,6.34
2023-05-01T00:23:04.659Z,6.27
2023-05-01T00:25:31.941Z,6.30
2023-05-01T00:28:00.157Z,6.27
2023-05-01T00:30:27.913Z,6.31
2023-05-01T00:32:56.214Z,6.36
2023-05-01T00:35:23.408Z,6.53
2023-05-01T00:37:52.092Z,6.65
2023-05-01T00:40:20.145Z,6.79
2023-05-01T00:42:47.915Z,6.92
2023-05-01T00:45:16.147Z,7.07
2023-05-01T00:47:43.650Z,7.18
2023-05-01T00:50:12.126Z,7.29
2023-05-01T00:52:39.871Z,7.36
2023-05-01T00:55:10.841Z,7.38
2023-05-01T00:57:38.154Z,7.49
2023-05-01T01:00:06.109Z,7.60
2023-05-01T01:02:33.972Z,7.68
2023-05-01T01:05:01.186Z,7.71
2023-05-01T01:07:42.726Z,7.78
2023-05-01T01:10:41.510Z,7.83
2023-05-01T01:13:18.552Z,7.93
2023-05-01T01:16:20.470Z,8.00
2023-05-01T01:19:02.960Z,8.06
2023-05-01T01:21:42.508Z,8.07
2023-05-01T01:24:15.946Z,8.17
2023-05-01T01:26:58.905Z,8.23
2023-05-01T01:29:32.702Z,8.25
2023-05-01T01:32:18.748Z,8.24
2023-05-01T01:34:56.827Z,8.25
2023-05-01T01:37:38.287Z,8.23
2023-05-01T01:40:10.731Z,8.18
2023-05-01T01:42:45.343Z,8.21
2023-05-01T01:45:31.937Z,8.16
2023-05-01T01:48:01.278Z,8.15
2023-05-01T01:50:29.260Z,8.14
2023-05-01T01:53:00.408Z,8.08
2023-05-01T01:55:31.574Z,8.01
2023-05-01T01:58:00.036Z,7.96
2023-05-01T02:00:28.845Z,7.94
2023-05-01T02:02:59.703Z,7.92
2023-05-01T02:05:31.619Z,7.89
2023-05-01T02:07:59.952Z,7.84
2023-05-01T02:10:31.344Z,7.81
2023-05-01T02:12:59.622Z,7.76
2023-05-01T02:15:28.969Z,7.71
2023-05-01T02:18:05.313Z,7.62
2023-05-01T02:20:34.764Z,7.53
2023-05-01T02:23:07.264Z,7.42
2023-05-01T02:25:40.120Z,7.29
2023-05-01T02:28:23.749Z,7.19
2023-05-01T02:30:53.670Z,7.01
2023-05-01T02:33:27.414Z,6.87
2023-05-01T02:35:55.247Z,6.75
2023-05-01T02:38:23.469Z,6.65
2023-05-01T02:40:56.873Z,6.56
2023-05-01T02:43:30.731Z,6.48
2023-05-01T02:46:02.935Z,6.36
2023-05-01T02:48:31.926Z,6.28
2023-05-01T02:51:02.969Z,6.20
2023-05-01T02:53:32.287Z,6.14
2023-05-01T02:56:08.998Z,6.08
2023-05-01T02:58:39.083Z,6.11
2023-05-01T03:01:07.988Z,6.10
2023-05-01T03:03:36.028Z,6.14
2023-05-01T03:06:04.725Z,6.21
2023-05-01T03:08:33.109Z,6.28
2023-05-01T03:11:06.557Z,6.35
2023-05-01T03:13:39.080Z,6.44
2023-05-01T03:16:07.129Z,6.50
2023-05-01T03:18:35.599Z,6.56
2023-05-01T03:21:04.823Z,6.64
2023-05-01T03:23:33.357Z,6.83
2023-05-01T03:26:02.426Z,7.31
2023-05-01T03:28:31.260Z,7.82
2023-05-01T03:30:58.912Z,8.38
2023-05-01T03:33:27.957Z,8.75
2023-05-01T03:36:04.564Z,9.15
2023-05-01T03:38:34.201Z,9.56
2023-05-01T03:41:10.776Z,9.89
2023-05-01T03:43:56.760Z,10.31
2023-05-01T03:46:47.068Z,10.55
2023-05-01T03:49:21.772Z,10.88
2023-05-01T03:51:51.875Z,11.06
2023-05-01T03:54:19.139Z,11.29
2023-05-01T03:56:57.229Z,11.51
2023-05-01T03:59:25.129Z,11.79
2023-05-01T04:01:52.306Z,11.96
2023-05-01T04:04:19.431Z,12.04
2023-05-01T04:06:53.731Z,12.32
2023-05-01T04:09:24.387Z,12.51
2023-05-01T04:11:52.282Z,12.71
2023-05-01T04:14:19.807Z,12.90
2023-05-01T04:16:47.300Z,13.05
2023-05-01T04:19:15.236Z,13.18
2023-05-01T04:21:45.290Z,13.10
2023-05-01T04:24:13.405Z,13.19
2023-05-01T04:26:42.846Z,13.05
2023-05-01T04:29:10.696Z,13.30
2023-05-01T04:31:38.704Z,13.56
2023-05-01T04:34:07.050Z,13.84
2023-05-01T04:36:37.210Z,14.09
2023-05-01T04:39:04.870Z,14.24
2023-05-01T04:41:32.824Z,14.25
2023-05-01T04:44:00.661Z,14.28
2023-05-01T04:46:27.951Z,14.42
2023-05-01T04:48:55.513Z,14.42
2023-05-01T04:51:23.747Z,14.40
2023-05-01T04:53:51.947Z,14.62
2023-05-01T04:56:26.432Z,14.55
2023-05-01T04:59:00.991Z,14.72
2023-05-01T05:01:30.267Z,14.80
2023-05-01T05:03:58.692Z,15.07
2023-05-01T05:06:26.697Z,15.31
2023-05-01T05:08:54.392Z,15.54
2023-05-01T05:11:22.123Z,15.65
2023-05-01T05:13:52.056Z,15.73
2023-05-01T05:16:20.597Z,15.98
2023-05-01T05:18:47.790Z,16.22
2023-05-01T05:21:15.373Z,16.34
2023-05-01T05:23:51.620Z,16.46
2023-05-01T05:26:19.403Z,16.56
2023-05-01T05:28:48.565Z,16.65
2023-05-01T05:31:15.652Z,16.90
2023-05-01T05:33:42.555Z,17.02
2023-05-01T05:36:10.290Z,17.11
2023-05-01T05:38:40.892Z,17.25
2023-05-01T05:41:10.793Z,17.33
2023-05-01T05:43:39.109Z,17.38
2023-05-01T05:46:07.815Z,17.54
2023-05-01T05:48:36.982Z,17.84
2023-05-01T05:51:04.866Z,18.02
2023-05-01T05:53:32.606Z,18.39
2023-05-01T05:55:59.927Z,18.65
2023-05-01T05:58:28.116Z,18.62
2023-05-01T06:00:58.657Z,18.66
2023-05-01T06:03:27.583Z,18.55
2023-05-01T06:05:59.482Z,17.99
2023-05-01T06:08:27.542Z,18.19
2023-05-01T06:10:54.581Z,18.30
2023-05-01T06:13:22.010Z,18.00
2023-05-01T06:15:50.291Z,17.45
2023-05-01T06:18:17.880Z,16.76
2023-05-01T06:20:45.987Z,16.79
2023-05-01T06:23:13.970Z,17.23
2023-05-01T06:26:04.280Z,17.50
2023-05-01T06:28:31.517Z,17.55
2023-05-01T06:30:58.960Z,17.91
2023-05-01T06:33:27.582Z,18.04
2023-05-01T06:36:14.979Z,18.16
2023-05-01T06:38:49.234Z,18.38
2023-05-01T06:41:17.409Z,18.71
2023-05-01T06:43:46.117Z,18.64
2023-05-01T06:46:13.645Z,18.69
2023-05-01T06:48:41.134Z,19.06
2023-05-01T06:51:08.440Z,19.39
2023-05-01T06:53:36.963Z,19.68
2023-05-01T06:56:06.097Z,20.02
2023-05-01T06:58:33.610Z,20.01
2023-05-01T07:01:00.966Z,19.95
2023-05-01T07:03:28.786Z,19.86
2023-05-01T07:05:56.615Z,20.41
2023-05-01T07:08:24.676Z,20.69
2023-05-01T07:10:54.253Z,20.91
2023-05-01T07:13:22.346Z,20.68
2023-05-01T07:15:50.087Z,20.80
2023-05-01T07:18:18.900Z,21.07
2023-05-01T07:20:47.385Z,21.09
2023-05-01T07:23:14.743Z,20.80
2023-05-01T07:25:43.084Z,20.46
2023-05-01T07:28:11.870Z,20.76
2023-05-01T07:30:40.223Z,20.93
2023-05-01T07:33:07.720Z,21.03
2023-05-01T07:35:35.696Z,21.35
2023-05-01T07:38:05.349Z,21.17
2023-05-01T07:40:37.038Z,21.09
2023-05-01T07:43:06.027Z,21.62
2023-05-01T07:45:36.344Z,21.80
2023-05-01T07:48:06.893Z,22.05
2023-05-01T07:50:36.552Z,22.11
2023-05-01T07:53:05.006Z,22.49
2023-05-01T07:55:32.842Z,22.46
2023-05-01T07:58:01.620Z,22.49
2023-05-01T08:00:32.200Z,22.72
2023-05-01T08:03:01.292Z,23.12
2023-05-01T08:05:32.917Z,23.16
2023-05-01T08:08:02.923Z,23.14
2023-05-01T08:10:32.454Z,23.09
2023-05-01T08:13:01.268Z,23.33
2023-05-01T08:15:29.765Z,23.62
2023-05-01T08:18:01.521Z,23.72
2023-05-01T08:20:30.429Z,24.14
2023-05-01T08:22:58.443Z,24.52
2023-05-01T08:25:28.585Z,24.86
2023-05-01T08:27:57.876Z,25.47
2023-05-01T08:30:28.733Z,25.94
2023-05-01T08:32:57.605Z,26.00
2023-05-01T08:35:25.806Z,25.94
2023-05-01T08:37:56.723Z,25.96
2023-05-01T08:40:29.107Z,25.04
2023-05-01T08:43:00.865Z,25.42
2023-05-01T08:45:32.025Z,25.32
2023-05-01T08:48:02.080Z,25.75
2023-05-01T08:50:32.036Z,25.97
2023-05-01T08:53:05.014Z,26.32
2023-05-01T08:55:37.727Z,26.87
2023-05-01T08:58:08.066Z,26.96
2023-05-01T09:00:37.804Z,26.88
2023-05-01T09:03:06.809Z,26.54
2023-05-01T09:05:34.714Z,26.38
2023-05-01T09:08:02.966Z,27.01
2023-05-01T09:10:33.876Z,27.58
2023-05-01T09:13:07.667Z,28.22
2023-05-01T09:15:36.050Z,27.88
2023-05-01T09:18:12.832Z,28.05
2023-05-01T09:20:42.277Z,28.44
2023-05-01T09:23:09.274Z,28.96
2023-05-01T09:25:36.671Z,29.04
2023-05-01T09:28:05.910Z,29.35
2023-05-01T09:30:38.622Z,28.22
2023-05-01T09:33:13.845Z,27.53
2023-05-01T09:35:51.637Z,27.65
2023-05-01T09:38:24.704Z,27.67
2023-05-01T09:40:54.644Z,27.46
2023-05-01T09:43:29.063Z,27.42
2023-05-01T09:46:05.549Z,27.40
2023-05-01T09:48:35.783Z,27.33
2023-05-01T09:51:29.253Z,27.72
2023-05-01T09:54:01.981Z,28.45
2023-05-01T09:56:31.578Z,28.82
2023-05-01T09:59:17.891Z,29.01
2023-05-01T10:01:46.979Z,29.09
2023-05-01T10:04:14.345Z,29.43
2023-05-01T10:06:42.373Z,29.27
2023-05-01T10:09:16.953Z,28.66
2023-05-01T10:11:57.884Z,28.28
2023-05-01T10:14:27.209Z,28.83
2023-05-01T10:16:54.427Z,28.43
2023-05-01T10:19:21.644Z,28.52
2023-05-01T10:21:48.911Z,28.99
2023-05-01T10:24:17.351Z,28.90
2023-05-01T10:26:45.042Z,28.69
2023-05-01T10:29:13.084Z,29.13
2023-05-01T10:31:42.284Z,29.44
2023-05-01T10:34:12.231Z,29.76
2023-05-01T10:36:49.791Z,30.08
2023-05-01T10:39:33.769Z,30.72
2023-05-01T10:42:04.980Z,31.10
2023-05-01T10:44:32.581Z,31.25
2023-05-01T10:46:59.901Z,30.96
2023-05-01T10:50:05.481Z,31.44
2023-05-01T10:53:14.780Z,30.94
2023-05-01T10:55:45.237Z,30.52
2023-05-01T10:58:14.281Z,30.82
2023-05-01T11:00:42.464Z,31.00
2023-05-01T11:03:21.590Z,31.42
2023-05-01T11:06:01.426Z,31.83
2023-05-01T11:08:35.613Z,32.15
2023-05-01T11:11:23.672Z,32.40
2023-05-01T11:14:02.204Z,32.12
2023-05-01T11:16:39.150Z,32.47
2023-05-01T11:19:29.575Z,32.27
2023-05-01T11:21:57.749Z,32.49
2023-05-01T11:24:33.891Z,32.47
2023-05-01T11:27:02.344Z,32.31
2023-05-01T11:29:33.647Z,31.55
2023-05-01T11:32:01.996Z,32.09
2023-05-01T11:34:36.065Z,32.51
2023-05-01T11:37:03.318Z,32.72
2023-05-01T11:39:30.822Z,32.99
2023-05-01T11:42:10.524Z,32.51
2023-05-01T11:44:38.328Z,33.00
2023-05-01T11:47:08.044Z,33.16
2023-05-01T11:49:39.403Z,32.98
2023-05-01T11:52:07.740Z,32.54
2023-05-01T11:54:48.199Z,31.87
2023-05-01T11:57:15.330Z,31.68
2023-05-01T11:59:47.588Z,31.61
2023-05-01T12:02:21.345Z,31.60
2023-05-01T12:04:48.862Z,31.67
2023-05-01T12:07:25.666Z,31.52
2023-05-01T12:09:53.472Z,30.69
2023-05-01T12:12:20.616Z,30.59
2023-05-01T12:14:47.862Z,29.51
2023-05-01T12:17:18.202Z,29.95
2023-05-01T12:19:49.048Z,30.42
2023-05-01T12:22:17.458Z,30.64
2023-05-01T12:24:52.904Z,29.35
2023-05-01T12:27:20.456Z,29.78
2023-05-01T12:29:48.405Z,29.83
2023-05-01T12:32:17.258Z,29.85
2023-05-01T12:34:45.261Z,30.08
2023-05-01T12:37:12.438Z,30.01
2023-05-01T12:39:42.387Z,28.24
2023-05-01T12:42:15.615Z,28.81
2023-05-01T12:44:44.298Z,28.37
2023-05-01T12:47:13.008Z,28.58
2023-05-01T12:49:40.911Z,28.13
2023-05-01T12:52:09.430Z,28.09
2023-05-01T12:54:38.876Z,28.44
2023-05-01T12:57:18.134Z,28.52
2023-05-01T12:59:47.357Z,28.34
2023-05-01T13:02:17.523Z,28.31
2023-05-01T13:04:45.391Z,28.48
2023-05-01T13:07:17.422Z,28.53
2023-05-01T13:09:59.417Z,28.85
2023-05-01T13:12:28.628Z,28.77
2023-05-01T13:14:57.568Z,28.98
2023-05-01T13:17:30.095Z,29.14
2023-05-01T13:20:03.281Z,29.03
2023-05-01T13:22:38.698Z,28.99
2023-05-01T13:25:16.348Z,28.81
2023-05-01T13:27:50.428Z,28.74
2023-05-01T13:30:31.316Z,28.71
2023-05-01T13:32:58.971Z,28.70
2023-05-01T13:35:27.830Z,28.77
2023-05-01T13:37:55.403Z,28.45
2023-05-01T13:40:26.550Z,28.35
2023-05-01T13:42:56.448Z,28.14
2023-05-01T13:45:25.484Z,27.87
2023-05-01T13:47:52.839Z,27.60
2023-05-01T13:50:20.581Z,27.33
2023-05-01T13:52:48.686Z,27.04
2023-05-01T13:55:17.922Z,26.93
2023-05-01T13:57:45.378Z,26.82
2023-05-01T14:00:19.712Z,26.57
2023-05-01T14:02:49.187Z,26.44
2023-05-01T14:05:17.180Z,26.26
2023-05-01T14:07:58.785Z,26.13
2023-05-01T14:10:28.747Z,26.01
2023-05-01T14:12:59.067Z,25.93
2023-05-01T14:15:27.474Z,25.79
2023-05-01T14:17:55.015Z,25.56
2023-05-01T14:20:25.778Z,25.26
2023-05-01T14:22:53.773Z,24.82
2023-05-01T14:25:23.472Z,24.17
2023-05-01T14:27:55.225Z,24.18
2023-05-01T14:30:30.209Z,23.74
2023-05-01T14:32:57.528Z,23.55
2023-05-01T14:35:25.304Z,23.27
2023-05-01T14:37:54.855Z,23.02
2023-05-01T14:40:30.803Z,22.81
2023-05-01T14:42:58.423Z,22.59
2023-05-01T14:45:26.111Z,22.33
2023-05-01T14:47:53.643Z,22.16
2023-05-01T14:50:22.877Z,21.93
2023-05-01T14:52:58.408Z,21.74
2023-05-01T14:55:29.738Z,21.53
2023-05-01T14:57:58.220Z,21.34
2023-05-01T15:00:26.956Z,21.08
2023-05-01T15:02:58.083Z,20.79
2023-05-01T15:05:26.513Z,20.31
2023-05-01T15:08:01.299Z,20.17
2023-05-01T15:10:29.654Z,19.75
2023-05-01T15:12:58.369Z,19.41
2023-05-01T15:15:27.134Z,19.22
2023-05-01T15:17:54.785Z,18.92
2023-05-01T15:20:23.574Z,18.59
2023-05-01T15:22:51.099Z,18.38
2023-05-01T15:25:18.590Z,18.12
2023-05-01T15:27:46.563Z,17.95
2023-05-01T15:30:15.426Z,17.81
2023-05-01T15:32:43.156Z,17.68
2023-05-01T15:35:10.893Z,17.51
2023-05-01T15:37:38.824Z,17.38
2023-05-01T15:40:07.346Z,17.23
2023-05-01T15:42:37.446Z,17.11
2023-05-01T15:45:06.143Z,16.99
2023-05-01T15:47:33.691Z,16.88
2023-05-01T15:50:04.054Z,16.75
2023-05-01T15:52:31.530Z,16.64
2023-05-01T15:54:59.257Z,16.56
2023-05-01T15:57:26.960Z,16.48
2023-05-01T15:59:56.201Z,16.31
2023-05-01T16:02:23.947Z,16.23
2023-05-01T16:04:52.270Z,16.13
2023-05-01T16:07:22.006Z,16.02
2023-05-01T16:09:49.624Z,15.87
2023-05-01T16:12:21.512Z,15.78
2023-05-01T16:14:49.349Z,15.70
2023-05-01T16:17:18.873Z,15.49
2023-05-01T16:19:47.025Z,15.37
2023-05-01T16:22:15.369Z,15.35
2023-05-01T16:24:42.894Z,15.24
2023-05-01T16:27:14.087Z,15.09
2023-05-01T16:29:41.621Z,14.97
2023-05-01T16:32:11.693Z,14.84
2023-05-01T16:34:40.689Z,14.54
2023-05-01T16:37:07.995Z,14.48
2023-05-01T16:39:39.835Z,14.39
2023-05-01T16:42:07.402Z,14.26
2023-05-01T16:44:37.031Z,14.04
2023-05-01T16:47:05.402Z,13.97
2023-05-01T16:49:33.044Z,13.83
2023-05-01T16:52:03.361Z,13.66
2023-05-01T16:54:37.398Z,13.53
2023-05-01T16:57:05.785Z,13.40
2023-05-01T16:59:34.746Z,13.28
2023-05-01T17:02:04.560Z,13.10
2023-05-01T17:04:32.335Z,12.97
2023-05-01T17:07:00.092Z,12.84
2023-05-01T17:09:27.618Z,12.69
2023-05-01T17:11:57.036Z,12.53
2023-05-01T17:14:24.608Z,12.35
2023-05-01T17:16:52.172Z,12.21
2023-05-01T17:19:19.929Z,12.03
2023-05-01T17:21:47.618Z,11.85
2023-05-01T17:24:14.908Z,11.66
2023-05-01T17:26:42.623Z,11.46
2023-05-01T17:29:10.081Z,11.27
2023-05-01T17:31:37.278Z,11.08
2023-05-01T17:34:04.672Z,10.91
2023-05-01T17:36:32.467Z,10.71
2023-05-01T17:39:01.682Z,10.54
2023-05-01T17:41:29.385Z,10.37
2023-05-01T17:43:56.899Z,10.17
2023-05-01T17:46:24.367Z,9.97
2023-05-01T17:48:52.152Z,9.76
2023-05-01T17:51:19.931Z,9.59
2023-05-01T17:53:47.492Z,9.42
2023-05-01T17:56:16.202Z,9.24
2023-05-01T17:58:43.482Z,9.12
2023-05-01T18:01:11.413Z,9.01
2023-05-01T18:03:39.238Z,8.92
2023-05-01T18:06:07.045Z,8.83
2023-05-01T18:08:34.734Z,8.76
2023-05-01T18:11:03.093Z,8.70
2023-05-01T18:13:33.781Z,8.63
2023-05-01T18:16:01.377Z,8.54
2023-05-01T18:18:28.866Z,8.42
2023-05-01T18:20:56.265Z,8.26
2023-05-01T18:23:25.559Z,8.11
2023-05-01T18:25:52.900Z,8.01
2023-05-01T18:28:20.387Z,7.89
2023-05-01T18:30:47.980Z,7.74
2023-05-01T18:33:15.753Z,7.56
2023-05-01T18:35:43.508Z,7.41
2023-05-01T18:38:11.283Z,7.32
2023-05-01T18:40:39.766Z,7.22
2023-05-01T18:43:07.011Z,7.13
2023-05-01T18:45:34.457Z,7.10
2023-05-01T18:48:02.004Z,7.04
2023-05-01T18:50:29.503Z,6.93
2023-05-01T18:52:56.644Z,6.85
2023-05-01T18:55:23.794Z,6.80
2023-05-01T18:57:51.352Z,6.73
2023-05-01T19:00:20.680Z,6.63
2023-05-01T19:02:52.204Z,6.54
2023-05-01T19:05:20.067Z,6.43
2023-05-01T19:07:47.427Z,6.32
2023-05-01T19:10:15.010Z,6.18
2023-05-01T19:12:42.734Z,6.03
2023-05-01T19:15:10.584Z,5.90
2023-05-01T19:17:37.996Z,5.80
2023-05-01T19:20:06.067Z,5.69
2023-05-01T19:22:33.531Z,5.59
2023-05-01T19:25:02.766Z,5.46
2023-05-01T19:27:31.328Z,5.35
2023-05-01T19:30:01.410Z,5.29
2023-05-01T19:32:29.414Z,5.22
2023-05-01T19:34:57.124Z,5.16
2023-05-01T19:37:24.904Z,5.11
2023-05-01T19:39:52.336Z,5.08
2023-05-01T19:42:20.037Z,5.04
2023-05-01T19:44:47.506Z,4.98
2023-05-01T19:47:14.941Z,4.91
2023-05-01T19:49:44.120Z,4.83
2023-05-01T19:52:11.488Z,4.78
2023-05-01T19:54:38.866Z,4.69
2023-05-01T19:57:06.390Z,4.64
2023-05-01T19:59:36.343Z,4.56
2023-05-01T20:02:04.747Z,4.51
2023-05-01T20:04:32.101Z,4.42
2023-05-01T20:06:59.676Z,4.29
2023-05-01T20:09:27.181Z,4.19
2023-05-01T20:11:54.575Z,4.09
2023-05-01T20:14:21.980Z,4.00
2023-05-01T20:16:53.356Z,3.93
2023-05-01T20:19:20.731Z,3.89
2023-05-01T20:21:48.280Z,3.87
2023-05-01T20:24:15.358Z,3.85
2023-05-01T20:26:42.724Z,3.78
2023-05-01T20:29:10.467Z,3.68
2023-05-01T20:31:37.656Z,3.61
2023-05-01T20:34:05.098Z,3.55
2023-05-01T20:36:32.428Z,3.47
2023-05-01T20:38:59.715Z,3.46
2023-05-01T20:41:28.227Z,3.49
2023-05-01T20:43:56.198Z,3.47
2023-05-01T20:46:24.077Z,3.44
2023-05-01T20:48:51.996Z,3.40
2023-05-01T20:51:19.693Z,3.39
2023-05-01T20:53:47.143Z,3.38
2023-05-01T20:56:14.689Z,3.35
2023-05-01T20:58:41.689Z,3.30
2023-05-01T21:01:09.544Z,3.27
2023-05-01T21:03:37.027Z,3.28
2023-05-01T21:06:04.783Z,3.27
2023-05-01T21:08:33.845Z,3.28
2023-05-01T21:11:02.090Z,3.27
2023-05-01T21:13:29.854Z,3.24
2023-05-01T21:15:57.089Z,3.20
2023-05-01T21:18:24.458Z,3.15
2023-05-01T21:20:52.516Z,3.10
2023-05-01T21:23:19.924Z,3.09
2023-05-01T21:25:47.550Z,3.03
2023-05-01T21:28:15.293Z,2.94
2023-05-01T21:30:42.902Z,2.85
2023-05-01T21:33:14.530Z,2.76
2023-05-01T21:35:43.530Z,2.68
2023-05-01T21:38:11.397Z,2.64
2023-05-01T21:40:41.576Z,2.58
2023-05-01T21:43:09.716Z,2.52
2023-05-01T21:45:40.643Z,2.47
2023-05-01T21:48:09.719Z,2.48
2023-05-01T21:50:38.308Z,2.50
2023-05-01T21:53:07.212Z,2.50
2023-05-01T21:55:34.641Z,2.45
2023-05-01T21:58:02.480Z,2.38
2023-05-01T22:00:30.472Z,2.33
2023-05-01T22:02:57.992Z,2.36
2023-05-01T22:05:25.603Z,2.36
2023-05-01T22:07:54.670Z,2.37
2023-05-01T22:10:22.315Z,2.36
2023-05-01T22:12:49.605Z,2.40
2023-05-01T22:15:17.324Z,2.37
2023-05-01T22:17:45.317Z,2.35
2023-05-01T22:20:12.953Z,2.27
2023-05-01T22:22:43.441Z,2.19
2023-05-01T22:25:12.246Z,2.13
2023-05-01T22:27:39.846Z,2.08
2023-05-01T22:30:07.689Z,2.06
2023-05-01T22:32:35.012Z,2.04
2023-05-01T22:35:02.180Z,2.05
2023-05-01T22:37:29.623Z,2.00
2023-05-01T22:39:57.179Z,1.89
2023-05-01T22:42:25.024Z,1.81
2023-05-01T22:44:52.487Z,1.76
2023-05-01T22:47:19.829Z,1.75
2023-05-01T22:49:47.506Z,1.75
2023-05-01T22:52:15.288Z,1.74
2023-05-01T22:54:42.879Z,1.69
2023-05-01T22:57:10.593Z,1.70
2023-05-01T22:59:39.758Z,1.71
2023-05-01T23:02:07.430Z,1.70
2023-05-01T23:04:34.814Z,1.70
2023-05-01T23:07:02.235Z,1.68
2023-05-01T23:09:32.359Z,1.61
2023-05-01T23:12:00.785Z,1.53
2023-05-01T23:14:28.084Z,1.44
2023-05-01T23:16:55.516Z,1.39
2023-05-01T23:19:25.377Z,1.35
2023-05-01T23:22:08.687Z,1.30
2023-05-01T23:24:41.763Z,1.27
2023-05-01T23:27:09.203Z,1.31
2023-05-01T23:29:36.798Z,1.34
2023-05-01T23:32:04.759Z,1.34
2023-05-01T23:34:32.701Z,1.34
2023-05-01T23:37:00.132Z,1.35
2023-05-01T23:39:27.113Z,1.36
2023-05-01T23:41:54.900Z,1.35
2023-05-01T23:44:22.626Z,1.30
2023-05-01T23:46:50.136Z,1.22
2023-05-01T23:49:17.163Z,1.13
2023-05-01T23:51:44.853Z,1.05
2023-05-01T23:54:11.870Z,0.98
2023-05-01T23:56:39.107Z,0.92
2023-05-01T23:59:06.417Z,0.87
